createdAt,value
2018-09-04T00:01:32.238Z,97716.84
2018-09-04T00:04:00.506Z,97714.49
2018-09-04T00:06:28.752Z,97712.52
2018-09-04T00:08:57.025Z,97711.59
2018-09-04T00:11:25.225Z,97709.81
2018-09-04T00:13:53.467Z,97712.56
2018-09-04T00:16:22.061Z,97705.29
2018-09-04T00:18:50.265Z,97701.93
2018-09-04T00:21:18.441Z,97707.83
2018-09-04T00:23:46.609Z,97703.88
2018-09-04T00:26:14.872Z,97701.36
2018-09-04T00:28:43.125Z,97699.97
2018-09-04T00:31:11.413Z,97700.36
2018-09-04T00:33:39.722Z,97705.89
2018-09-04T00:36:08.507Z,97704.31
2018-09-04T00:38:36.669Z,97705.48
2018-09-04T00:41:04.941Z,97703.91
2018-09-04T00:43:33.202Z,97706.28
2018-09-04T00:46:02.002Z,97701.95
2018-09-04T00:48:30.408Z,97709.02
2018-09-04T00:50:58.603Z,97715.33
2018-09-04T00:53:26.820Z,97710.78
2018-09-04T00:55:55.055Z,97709.23
2018-09-04T00:58:23.268Z,97710.78
2018-09-04T01:00:51.472Z,97709.22
2018-09-04T01:03:19.728Z,97713.73
2018-09-04T01:05:47.994Z,97709.20
2018-09-04T01:08:16.274Z,97710.55
2018-09-04T01:10:44.577Z,97708.62
2018-09-04T01:13:12.761Z,97710.19
2018-09-04T01:15:41.198Z,97718.67
2018-09-04T01:18:09.743Z,97719.06
2018-09-04T01:20:37.970Z,97718.86
2018-09-04T01:23:06.339Z,97715.72
2018-09-04T01:25:34.645Z,97719.25
2018-09-04T01:28:02.897Z,97719.65
2018-09-04T01:30:31.061Z,97714.14
2018-09-04T01:32:59.268Z,97712.17
2018-09-04T01:35:28.873Z,97711.59
2018-09-04T01:37:57.069Z,97715.73
2018-09-04T01:40:25.310Z,97710.39
2018-09-04T01:42:53.605Z,97707.84
2018-09-04T01:45:22.207Z,97713.16
2018-09-04T01:47:50.444Z,97711.98
2018-09-04T01:50:18.860Z,97713.36
2018-09-04T01:52:47.041Z,97712.77
2018-09-04T01:55:15.401Z,97708.42
2018-09-04T01:57:43.589Z,97716.28
2018-09-04T02:00:12.178Z,97711.39
2018-09-04T02:02:40.616Z,97717.44
2018-09-04T02:05:08.818Z,97708.81
2018-09-04T02:07:37.054Z,97711.56
2018-09-04T02:10:05.252Z,97706.06
2018-09-04T02:12:33.422Z,97710.78
2018-09-04T02:15:01.679Z,97709.57
2018-09-04T02:17:29.864Z,97715.28
2018-09-04T02:19:58.124Z,97710.75
2018-09-04T02:22:26.305Z,97717.47
2018-09-04T02:24:54.493Z,97706.26
2018-09-04T02:27:22.674Z,97710.36
2018-09-04T02:29:50.931Z,97707.22
2018-09-04T02:32:19.257Z,97699.74
2018-09-04T02:34:47.454Z,97705.84
2018-09-04T02:37:15.653Z,97700.33
2018-09-04T02:39:44.065Z,97708.78
2018-09-04T02:42:12.305Z,97708.00
2018-09-04T02:44:40.499Z,97701.12
2018-09-04T02:47:08.711Z,97699.34
2018-09-04T02:49:36.927Z,97704.85
2018-09-04T02:52:05.251Z,97696.20
2018-09-04T02:54:33.437Z,97710.55
2018-09-04T02:57:01.661Z,97706.63
2018-09-04T02:59:29.836Z,97702.50
2018-09-04T03:01:58.433Z,97704.27
2018-09-04T03:04:26.694Z,97703.67
2018-09-04T03:06:54.877Z,97705.84
2018-09-04T03:09:23.159Z,97700.73
2018-09-04T03:11:51.414Z,97696.59
2018-09-04T03:14:19.728Z,97697.19
2018-09-04T03:16:47.914Z,97696.59
2018-09-04T03:19:16.087Z,97697.38
2018-09-04T03:21:44.474Z,97691.87
2018-09-04T03:24:12.714Z,97688.53
2018-09-04T03:26:40.877Z,97684.41
2018-09-04T03:29:09.056Z,97688.53
2018-09-04T03:31:37.254Z,97684.02
2018-09-04T03:34:05.913Z,97680.88
2018-09-04T03:36:34.123Z,97682.25
2018-09-04T03:39:02.521Z,97683.23
2018-09-04T03:41:30.725Z,97690.50
2018-09-04T03:43:59.831Z,97698.56
2018-09-04T03:46:28.023Z,97698.56
2018-09-04T03:48:56.281Z,97707.99
2018-09-04T03:51:24.453Z,97706.62
2018-09-04T03:53:52.651Z,97701.70
2018-09-04T03:56:20.903Z,97703.48
2018-09-04T03:58:49.069Z,97696.98
2018-09-04T04:01:17.385Z,97706.95
2018-09-04T04:03:45.833Z,97705.56
2018-09-04T04:06:14.020Z,97702.45
2018-09-04T04:08:42.299Z,97704.61
2018-09-04T04:11:10.464Z,97700.13
2018-09-04T04:13:38.744Z,97703.28
2018-09-04T04:16:06.912Z,97701.52
2018-09-04T04:18:35.080Z,97707.80
2018-09-04T04:21:03.264Z,97708.54
2018-09-04T04:23:31.709Z,97706.42
2018-09-04T04:26:01.330Z,97711.10
2018-09-04T04:28:29.490Z,97710.95
2018-09-04T04:30:57.940Z,97713.51
2018-09-04T04:33:26.113Z,97709.59
2018-09-04T04:35:54.305Z,97718.84
2018-09-04T04:38:22.478Z,97722.73
2018-09-04T04:40:50.645Z,97722.10
2018-09-04T04:43:18.810Z,97724.23
2018-09-04T04:45:47.053Z,97722.87
2018-09-04T04:48:15.587Z,97721.70
2018-09-04T04:50:43.697Z,97721.16
2018-09-04T04:53:12.145Z,97721.76
2018-09-04T04:55:40.305Z,97715.08
2018-09-04T04:58:08.513Z,97717.23
2018-09-04T05:00:36.695Z,97718.02
2018-09-04T05:03:04.869Z,97713.89
2018-09-04T05:05:33.040Z,97711.73
2018-09-04T05:08:01.264Z,97714.49
2018-09-04T05:10:29.444Z,97720.39
2018-09-04T05:12:57.686Z,97722.67
2018-09-04T05:15:25.966Z,97721.17
2018-09-04T05:17:54.150Z,97727.50
2018-09-04T05:20:25.670Z,97734.38
2018-09-04T05:22:53.902Z,97726.48
2018-09-04T05:25:22.060Z,97727.66
2018-09-04T05:27:50.322Z,97728.90
2018-09-04T05:30:18.590Z,97735.99
2018-09-04T05:33:00.086Z,97741.48
2018-09-04T05:35:33.890Z,97740.70
2018-09-04T05:38:02.031Z,97740.11
2018-09-04T05:40:30.230Z,97743.25
2018-09-04T05:43:00.938Z,97739.71
2018-09-04T05:45:30.349Z,97742.85
2018-09-04T05:48:03.198Z,97750.73
2018-09-04T05:50:31.446Z,97753.30
2018-09-04T05:52:59.634Z,97757.24
2018-09-04T05:55:28.089Z,97755.86
2018-09-04T05:57:56.798Z,97749.94
2018-09-04T06:00:27.118Z,97750.91
2018-09-04T06:02:55.364Z,97749.08
2018-09-04T06:05:23.896Z,97752.83
2018-09-04T06:07:52.476Z,97753.20
2018-09-04T06:10:20.706Z,97753.61
2018-09-04T06:12:49.249Z,97757.34
2018-09-04T06:15:17.667Z,97751.60
2018-09-04T06:17:46.014Z,97751.63
2018-09-04T06:20:14.269Z,97745.20
2018-09-04T06:22:42.506Z,97744.37
2018-09-04T06:25:11.212Z,97743.07
2018-09-04T06:27:39.503Z,97739.78
2018-09-04T06:30:08.395Z,97746.31
2018-09-04T06:32:36.880Z,97742.42
2018-09-04T06:35:06.988Z,97745.41
2018-09-04T06:37:35.221Z,97753.30
2018-09-04T06:40:03.440Z,97749.05
2018-09-04T06:42:31.656Z,97751.16
2018-09-04T06:44:59.841Z,97753.78
2018-09-04T06:47:28.387Z,97746.91
2018-09-04T06:49:56.653Z,97751.82
2018-09-04T06:52:24.831Z,97746.11
2018-09-04T06:54:53.145Z,97751.55
2018-09-04T06:57:21.342Z,97753.92
2018-09-04T06:59:49.505Z,97761.80
2018-09-04T07:02:17.684Z,97767.89
2018-09-04T07:04:45.865Z,97768.66
2018-09-04T07:07:14.121Z,97771.16
2018-09-04T07:09:42.329Z,97770.42
2018-09-04T07:12:11.076Z,97769.34
2018-09-04T07:14:39.259Z,97768.42
2018-09-04T07:17:07.489Z,97772.52
2018-09-04T07:19:35.615Z,97782.95
2018-09-04T07:22:03.794Z,97781.70
2018-09-04T07:24:32.287Z,97779.29
2018-09-04T07:27:00.556Z,97784.84
2018-09-04T07:29:28.839Z,97795.20
2018-09-04T07:31:57.098Z,97793.84
2018-09-04T07:34:25.405Z,97795.73
2018-09-04T07:36:53.686Z,97794.83
2018-09-04T07:39:21.868Z,97797.75
2018-09-04T07:41:50.123Z,97799.07
2018-09-04T07:44:18.277Z,97791.86
2018-09-04T07:46:46.573Z,97812.78
2018-09-04T07:49:14.846Z,97807.30
2018-09-04T07:51:43.063Z,97813.58
2018-09-04T07:54:11.277Z,97811.24
2018-09-04T07:56:39.885Z,97811.28
2018-09-04T07:59:08.093Z,97812.33
2018-09-04T08:01:36.265Z,97804.10
2018-09-04T08:04:04.501Z,97805.43
2018-09-04T08:06:32.762Z,97800.02
2018-09-04T08:09:00.933Z,97809.69
2018-09-04T08:11:29.367Z,97804.45
2018-09-04T08:13:57.581Z,97808.05
2018-09-04T08:16:25.816Z,97804.53
2018-09-04T08:18:53.963Z,97810.78
2018-09-04T08:21:22.283Z,97804.34
2018-09-04T08:23:50.443Z,97815.38
2018-09-04T08:26:18.629Z,97810.42
2018-09-04T08:28:46.836Z,97812.37
2018-09-04T08:31:15.013Z,97814.73
2018-09-04T08:33:43.236Z,97811.44
2018-09-04T08:36:11.402Z,97815.05
2018-09-04T08:38:45.238Z,97811.59
2018-09-04T08:41:13.439Z,97811.41
2018-09-04T08:43:41.642Z,97811.14
2018-09-04T08:46:09.926Z,97806.97
2018-09-04T08:48:38.272Z,97804.67
2018-09-04T08:51:06.446Z,97808.96
2018-09-04T08:53:34.685Z,97809.98
2018-09-04T08:56:03.605Z,97806.77
2018-09-04T08:58:31.795Z,97810.48
2018-09-04T09:00:59.977Z,97800.25
2018-09-04T09:03:28.258Z,97794.31
2018-09-04T09:05:56.462Z,97798.78
2018-09-04T09:08:24.679Z,97798.44
2018-09-04T09:10:52.845Z,97795.17
2018-09-04T09:13:21.008Z,97794.98
2018-09-04T09:15:49.805Z,97792.05
2018-09-04T09:18:17.980Z,97798.41
2018-09-04T09:20:46.163Z,97797.30
2018-09-04T09:23:14.777Z,97793.84
2018-09-04T09:25:42.986Z,97786.58
2018-09-04T09:28:11.253Z,97796.35
2018-09-04T09:30:39.470Z,97788.40
2018-09-04T09:33:07.651Z,97795.05
2018-09-04T09:35:37.055Z,97788.47
2018-09-04T09:38:05.353Z,97792.83
2018-09-04T09:40:34.245Z,97792.55
2018-09-04T09:43:02.509Z,97790.95
2018-09-04T09:45:30.799Z,97791.70
2018-09-04T09:47:58.978Z,97784.47
2018-09-04T09:50:27.153Z,97789.45
2018-09-04T09:52:55.484Z,97788.40
2018-09-04T09:55:23.683Z,97791.25
2018-09-04T09:57:51.850Z,97787.69
2018-09-04T10:00:25.466Z,97788.42
2018-09-04T10:02:59.010Z,97788.59
2018-09-04T10:05:27.190Z,97792.80
2018-09-04T10:07:55.465Z,97797.09
2018-09-04T10:10:23.582Z,97792.38
2018-09-04T10:12:51.872Z,97792.02
2018-09-04T10:15:20.045Z,97802.64
2018-09-04T10:17:48.217Z,97803.83
2018-09-04T10:20:16.435Z,97802.06
2018-09-04T10:22:44.617Z,97798.63
2018-09-04T10:25:12.829Z,97795.83
2018-09-04T10:27:41.053Z,97790.55
2018-09-04T10:30:15.185Z,97790.83
2018-09-04T10:32:50.925Z,97791.73
2018-09-04T10:35:20.241Z,97791.52
2018-09-04T10:37:48.494Z,97799.16
2018-09-04T10:40:22.327Z,97806.32
2018-09-04T10:42:50.531Z,97801.02
2018-09-04T10:45:24.143Z,97799.48
2018-09-04T10:47:52.674Z,97800.17
2018-09-04T10:50:21.238Z,97794.78
2018-09-04T10:52:49.638Z,97797.37
2018-09-04T10:55:17.971Z,97800.20
2018-09-04T10:57:46.258Z,97796.14
2018-09-04T11:00:15.361Z,97790.56
2018-09-04T11:02:43.621Z,97793.37
2018-09-04T11:05:11.877Z,97792.00
2018-09-04T11:07:40.080Z,97798.06
2018-09-04T11:10:08.522Z,97802.92
2018-09-04T11:12:36.806Z,97801.08
2018-09-04T11:15:05.098Z,97796.39
2018-09-04T11:17:33.653Z,97796.71
2018-09-04T11:20:01.946Z,97794.11
2018-09-04T11:22:30.149Z,97794.58
2018-09-04T11:24:58.387Z,97791.14
2018-09-04T11:27:26.657Z,97792.94
2018-09-04T11:29:55.212Z,97795.66
2018-09-04T11:32:23.378Z,97796.92
2018-09-04T11:34:51.593Z,97796.17
2018-09-04T11:37:20.075Z,97805.43
2018-09-04T11:39:48.383Z,97804.44
2018-09-04T11:42:16.637Z,97808.41
2018-09-04T11:44:45.285Z,97810.31
2018-09-04T11:47:13.925Z,97813.38
2018-09-04T11:49:42.844Z,97817.67
2018-09-04T11:52:11.644Z,97821.66
2018-09-04T11:54:39.908Z,97826.08
2018-09-04T11:57:08.102Z,97818.84
2018-09-04T11:59:39.208Z,97821.41
2018-09-04T12:02:11.398Z,97823.18
2018-09-04T12:04:39.779Z,97814.99
2018-09-04T12:07:07.941Z,97810.90
2018-09-04T12:09:36.107Z,97806.52
2018-09-04T12:12:04.352Z,97795.58
2018-09-04T12:14:39.188Z,97794.20
2018-09-04T12:17:08.534Z,97797.34
2018-09-04T12:19:50.032Z,97794.84
2018-09-04T12:22:18.223Z,97803.08
2018-09-04T12:24:46.474Z,97795.94
2018-09-04T12:27:14.776Z,97802.38
2018-09-04T12:29:43.100Z,97805.09
2018-09-04T12:32:11.305Z,97800.93
2018-09-04T12:34:39.470Z,97796.28
2018-09-04T12:37:07.660Z,97794.19
2018-09-04T12:39:35.870Z,97799.34
2018-09-04T12:42:04.123Z,97791.47
2018-09-04T12:44:32.425Z,97796.11
2018-09-04T12:47:00.816Z,97797.85
2018-09-04T12:49:29.912Z,97800.76
2018-09-04T12:51:58.481Z,97793.48
2018-09-04T12:54:26.659Z,97799.91
2018-09-04T12:56:54.929Z,97798.11
2018-09-04T12:59:23.205Z,97792.94
2018-09-04T13:01:51.401Z,97793.78
2018-09-04T13:04:19.641Z,97787.92
2018-09-04T13:06:47.843Z,97784.86
2018-09-04T13:09:16.077Z,97790.93
2018-09-04T13:11:44.273Z,97790.52
2018-09-04T13:14:12.557Z,97791.88
2018-09-04T13:16:40.746Z,97799.00
2018-09-04T13:19:08.996Z,97799.08
2018-09-04T13:21:37.276Z,97800.13
2018-09-04T13:24:05.612Z,97801.39
2018-09-04T13:26:34.143Z,97804.65
2018-09-04T13:29:02.372Z,97803.30
2018-09-04T13:31:30.902Z,97801.82
2018-09-04T13:33:59.154Z,97805.05
2018-09-04T13:36:27.466Z,97803.31
2018-09-04T13:38:55.748Z,97799.84
2018-09-04T13:41:23.938Z,97796.78
2018-09-04T13:43:52.171Z,97801.52
2018-09-04T13:46:20.708Z,97809.98
2018-09-04T13:48:49.210Z,97796.03
2018-09-04T13:51:17.413Z,97789.67
2018-09-04T13:53:45.637Z,97794.69
2018-09-04T13:56:13.809Z,97796.20
2018-09-04T13:58:42.053Z,97786.64
2018-09-04T14:01:10.241Z,97786.84
2018-09-04T14:03:38.513Z,97782.19
2018-09-04T14:06:06.845Z,97774.05
2018-09-04T14:08:35.054Z,97786.56
2018-09-04T14:11:03.223Z,97776.48
2018-09-04T14:13:31.453Z,97787.23
2018-09-04T14:16:01.873Z,97782.87
2018-09-04T14:18:30.049Z,97783.95
2018-09-04T14:20:58.504Z,97795.58
2018-09-04T14:23:26.730Z,97794.86
2018-09-04T14:25:54.916Z,97797.86
2018-09-04T14:28:40.969Z,97797.77
2018-09-04T14:30:51.768Z,97796.25
2018-09-04T14:33:19.758Z,97801.00
2018-09-04T14:35:47.960Z,97803.19
2018-09-04T14:38:16.146Z,97802.91
2018-09-04T14:40:44.666Z,97793.88
2018-09-04T14:43:12.858Z,97792.72
2018-09-04T14:45:41.032Z,97794.42
2018-09-04T14:48:09.220Z,97792.36
2018-09-04T14:50:37.472Z,97796.63
2018-09-04T14:53:05.728Z,97792.61
2018-09-04T14:55:34.030Z,97787.06
2018-09-04T14:58:02.225Z,97781.44
2018-09-04T15:00:30.681Z,97785.38
2018-09-04T15:02:58.947Z,97777.16
2018-09-04T15:05:27.241Z,97784.81
2018-09-04T15:07:55.488Z,97779.25
2018-09-04T15:10:23.777Z,97780.55
2018-09-04T15:12:52.155Z,97792.49
2018-09-04T15:15:20.683Z,97796.75
2018-09-04T15:17:48.958Z,97794.28
2018-09-04T15:20:17.217Z,97795.90
2018-09-04T15:22:45.459Z,97789.25
2018-09-04T15:25:13.996Z,97802.11
2018-09-04T15:27:42.389Z,97802.62
2018-09-04T15:30:10.705Z,97798.37
2018-09-04T15:32:38.975Z,97796.64
2018-09-04T15:35:08.897Z,97790.39
2018-09-04T15:37:37.074Z,97800.13
2018-09-04T15:40:05.350Z,97802.86
2018-09-04T15:42:33.605Z,97816.81
2018-09-04T15:45:01.788Z,97813.14
2018-09-04T15:47:29.966Z,97822.40
2018-09-04T15:49:58.510Z,97813.81
2018-09-04T15:52:26.685Z,97811.30
2018-09-04T15:54:54.858Z,97811.80
2018-09-04T15:57:23.080Z,97814.72
2018-09-04T15:59:51.356Z,97819.09
2018-09-04T16:02:19.595Z,97826.05
2018-09-04T16:04:47.829Z,97828.13
2018-09-04T16:07:16.093Z,97835.59
2018-09-04T16:09:44.417Z,97833.12
2018-09-04T16:12:12.574Z,97836.03
2018-09-04T16:14:40.805Z,97844.08
2018-09-04T16:17:09.073Z,97845.73
2018-09-04T16:19:37.253Z,97843.77
2018-09-04T16:22:05.844Z,97858.89
2018-09-04T16:24:34.189Z,97859.33
2018-09-04T16:27:02.404Z,97864.41
2018-09-04T16:29:30.662Z,97872.59
2018-09-04T16:31:58.936Z,97875.63
2018-09-04T16:34:27.367Z,97876.71
2018-09-04T16:36:55.547Z,97869.94
2018-09-04T16:39:23.787Z,97873.08
2018-09-04T16:41:52.124Z,97877.03
2018-09-04T16:44:20.904Z,97890.67
2018-09-04T16:46:49.186Z,97884.13
2018-09-04T16:49:17.406Z,97887.83
2018-09-04T16:51:45.586Z,97875.05
2018-09-04T16:54:13.830Z,97872.05
2018-09-04T16:56:42.052Z,97862.47
2018-09-04T16:59:10.305Z,97856.34
2018-09-04T17:01:38.485Z,97862.81
2018-09-04T17:04:06.752Z,97864.97
2018-09-04T17:06:35.007Z,97866.78
2018-09-04T17:09:03.758Z,97859.67
2018-09-04T17:11:31.972Z,97863.52
2018-09-04T17:14:00.470Z,97863.53
2018-09-04T17:16:28.745Z,97862.09
2018-09-04T17:18:57.015Z,97858.75
2018-09-04T17:21:25.809Z,97855.71
2018-09-04T17:23:54.039Z,97855.32
2018-09-04T17:26:22.213Z,97850.08
2018-09-04T17:28:50.529Z,97849.77
2018-09-04T17:31:18.703Z,97850.70
2018-09-04T17:33:46.881Z,97858.26
2018-09-04T17:36:15.066Z,97853.86
2018-09-04T17:38:43.309Z,97856.15
2018-09-04T17:41:11.508Z,97857.57
2018-09-04T17:43:39.816Z,97856.86
2018-09-04T17:46:08.072Z,97866.50
2018-09-04T17:48:36.650Z,97865.12
2018-09-04T17:51:04.882Z,97865.89
2018-09-04T17:53:33.517Z,97867.21
2018-09-04T17:56:02.577Z,97868.69
2018-09-04T17:58:30.810Z,97874.94
2018-09-04T18:00:59.122Z,97873.53
2018-09-04T18:03:27.321Z,97879.11
2018-09-04T18:05:55.501Z,97878.91
2018-09-04T18:08:23.770Z,97881.22
2018-09-04T18:10:52.097Z,97892.61
2018-09-04T18:13:20.626Z,97904.26
2018-09-04T18:15:48.863Z,97903.11
2018-09-04T18:18:17.061Z,97908.86
2018-09-04T18:20:45.269Z,97915.02
2018-09-04T18:23:13.528Z,97925.30
2018-09-04T18:25:41.719Z,97930.41
2018-09-04T18:28:09.985Z,97927.45
2018-09-04T18:30:38.643Z,97938.14
2018-09-04T18:33:07.056Z,97939.34
2018-09-04T18:35:35.367Z,97940.75
2018-09-04T18:38:03.620Z,97942.28
2018-09-04T18:40:32.196Z,97946.46
2018-09-04T18:43:00.672Z,97948.67
2018-09-04T18:45:41.752Z,97952.62
2018-09-04T18:48:09.934Z,97964.89
2018-09-04T18:50:38.179Z,97966.84
2018-09-04T18:53:06.916Z,97971.20
2018-09-04T18:55:35.174Z,97976.12
2018-09-04T18:58:03.426Z,97970.98
2018-09-04T19:00:31.634Z,97968.23
2018-09-04T19:02:59.917Z,97970.20
2018-09-04T19:05:28.314Z,97972.22
2018-09-04T19:07:56.550Z,97968.69
2018-09-04T19:10:24.815Z,97973.80
2018-09-04T19:12:53.022Z,97972.42
2018-09-04T19:15:21.402Z,97970.66
2018-09-04T19:17:49.578Z,97972.64
2018-09-04T19:20:17.870Z,97973.25
2018-09-04T19:22:46.751Z,97978.97
2018-09-04T19:25:15.229Z,97979.73
2018-09-04T19:27:43.425Z,97981.31
2018-09-04T19:30:11.741Z,97975.40
2018-09-04T19:32:40.161Z,97978.36
2018-09-04T19:35:09.793Z,97981.71
2018-09-04T19:37:38.192Z,97985.06
2018-09-04T19:40:07.083Z,97981.88
2018-09-04T19:42:35.524Z,97981.88
2018-09-04T19:45:04.951Z,97979.69
2018-09-04T19:47:33.166Z,97977.91
2018-09-04T19:50:01.536Z,97981.45
2018-09-04T19:52:29.788Z,97979.69
2018-09-04T19:54:57.980Z,97986.77
2018-09-04T19:57:26.239Z,97986.38
2018-09-04T19:59:54.437Z,97984.60
2018-09-04T20:02:22.686Z,97983.81
2018-09-04T20:04:50.866Z,97983.21
2018-09-04T20:07:19.153Z,97985.34
2018-09-04T20:09:47.328Z,97986.70
2018-09-04T20:12:15.618Z,97994.75
2018-09-04T20:14:43.814Z,97987.27
2018-09-04T20:17:11.997Z,97990.42
2018-09-04T20:19:40.221Z,97990.59
2018-09-04T20:22:09.269Z,97987.40
2018-09-04T20:24:37.443Z,97986.98
2018-09-04T20:27:05.662Z,97992.30
2018-09-04T20:29:34.228Z,97995.64
2018-09-04T20:32:02.387Z,97984.80
2018-09-04T20:34:30.717Z,97991.67
2018-09-04T20:36:59.035Z,97992.20
2018-09-04T20:39:27.399Z,97989.05
2018-09-04T20:41:56.124Z,97991.35
2018-09-04T20:44:24.573Z,97992.73
2018-09-04T20:46:52.831Z,97995.88
2018-09-04T20:49:21.093Z,97998.98
2018-09-04T20:51:49.588Z,97998.61
2018-09-04T20:54:18.152Z,98004.08
2018-09-04T20:57:10.096Z,97994.42
2018-09-04T20:59:49.831Z,98000.52
2018-09-04T21:02:29.306Z,97992.66
2018-09-04T21:05:08.780Z,97997.84
2018-09-04T21:07:52.231Z,97995.05
2018-09-04T21:10:20.743Z,97998.02
2018-09-04T21:12:49.015Z,97993.36
2018-09-04T21:15:17.404Z,97992.38
2018-09-04T21:17:45.952Z,97985.48
2018-09-04T21:20:14.209Z,97985.87
2018-09-04T21:22:42.514Z,97991.97
2018-09-04T21:25:10.717Z,97995.11
2018-09-04T21:27:38.898Z,97988.81
2018-09-04T21:30:07.149Z,97983.25
2018-09-04T21:32:35.393Z,97994.08
2018-09-04T21:35:04.985Z,97991.39
2018-09-04T21:37:33.201Z,97996.48
2018-09-04T21:40:01.385Z,97991.72
2018-09-04T21:42:29.697Z,97989.02
2018-09-04T21:44:58.014Z,97989.89
2018-09-04T21:47:26.201Z,97991.12
2018-09-04T21:49:54.605Z,97999.79
2018-09-04T21:52:22.943Z,98001.37
2018-09-04T21:54:51.374Z,98004.13
2018-09-04T21:57:19.620Z,98006.29
2018-09-04T21:59:47.876Z,98003.37
2018-09-04T22:02:16.083Z,98004.38
2018-09-04T22:04:44.627Z,98005.79
2018-09-04T22:07:13.093Z,97996.52
2018-09-04T22:09:41.380Z,97998.89
2018-09-04T22:12:11.044Z,97999.09
2018-09-04T22:14:39.522Z,97993.58
2018-09-04T22:17:08.012Z,97996.72
2018-09-04T22:19:36.225Z,98003.61
2018-09-04T22:22:04.925Z,98004.02
2018-09-04T22:24:34.974Z,98002.26
2018-09-04T22:27:07.355Z,97997.72
2018-09-04T22:29:36.576Z,98000.05
2018-09-04T22:32:05.022Z,97999.25
2018-09-04T22:34:33.622Z,98002.78
2018-09-04T22:37:03.110Z,98000.42
2018-09-04T22:39:38.122Z,98001.56
2018-09-04T22:42:06.396Z,98002.36
2018-09-04T22:44:34.578Z,98005.23
2018-09-04T22:47:02.853Z,98004.95
2018-09-04T22:49:31.146Z,98017.70
2018-09-04T22:52:01.568Z,98018.67
2018-09-04T22:54:30.051Z,98016.91
2018-09-04T22:56:58.229Z,98018.66
2018-09-04T22:59:27.135Z,98027.91
2018-09-04T23:01:55.343Z,98031.31
2018-09-04T23:04:23.536Z,98026.41
2018-09-04T23:06:51.847Z,98037.34
2018-09-04T23:09:20.085Z,98033.11
2018-09-04T23:11:48.568Z,98033.52
2018-09-04T23:14:17.092Z,98036.72
2018-09-04T23:16:45.294Z,98035.93
2018-09-04T23:19:13.585Z,98032.19
2018-09-04T23:21:41.759Z,98027.97
2018-09-04T23:24:10.172Z,98037.12
2018-09-04T23:26:38.418Z,98036.83
2018-09-04T23:29:07.428Z,98034.77
2018-09-04T23:31:35.632Z,98034.35
2018-09-04T23:34:03.822Z,98033.77
2018-09-04T23:36:32.003Z,98027.06
2018-09-04T23:39:00.224Z,98037.70
2018-09-04T23:41:28.502Z,98038.15
2018-09-04T23:43:56.736Z,98035.56
2018-09-04T23:46:25.040Z,98038.15
2018-09-04T23:48:53.212Z,98034.09
2018-09-04T23:51:21.421Z,98033.87
2018-09-04T23:53:49.678Z,98038.73
2018-09-04T23:56:18.117Z,98034.87
2018-09-04T23:58:46.295Z,98037.16
